Time;durP1;ratioP1;P1;durP2;ratioP2;P2;SDS_P1;SDS_P2;PMS_P1;PMS_P2;Temp;Humidity;BMP_temperature;BMP_pressure;BME280_temperature;BME280_humidity;BME280_pressure;Samples;Min_cycle;Max_cycle;Signal;HPM_P1;HPM_P2
2024/01/11 19:10:45;;;;;;;6.30;3.00;;;;;;;0.23;91.11;100782.73;104672;1305;545539;-87
2024/01/11 19:13:14;;;;;;;5.10;3.20;;;;;;;0.19;90.89;100784.30;106860;1294;22570;-86
2024/01/11 19:22:17;;;;;;;6.70;3.90;;;;;;;0.12;90.37;100796.67;104735;1305;545873;-91
2024/01/11 19:24:45;;;;;;;5.40;3.30;;;;;;;0.09;90.61;100799.33;106631;1286;23199;-88
2024/01/11 19:27:14;;;;;;;5.10;3.40;;;;;;;0.07;90.57;100801.69;106283;1286;23093;-87
2024/01/11 19:29:46;;;;;;;7.00;4.30;;;;;;;0.10;90.92;100812.02;106481;1286;22541;-90
2024/01/11 19:33:21;;;;;;;6.40;3.50;;;;;;;0.11;90.05;100820.52;106443;1286;22546;-85
2024/01/11 19:35:49;;;;;;;4.90;3.30;;;;;;;0.02;89.84;100822.95;105503;1284;1420148;-89
2024/01/11 19:38:20;;;;;;;5.70;3.20;;;;;;;0.02;90.08;100831.77;107245;1272;25278;-84
2024/01/11 19:40:49;;;;;;;6.00;3.20;;;;;;;-0.02;89.67;100834.03;107052;1275;24214;-85
2024/01/11 19:43:17;;;;;;;6.10;3.70;;;;;;;-0.06;89.44;100842.20;107175;1275;22513;-84
2024/01/11 19:45:44;;;;;;;5.00;3.30;;;;;;;-0.10;89.36;100847.75;108488;1275;22542;-83
2024/01/11 19:48:11;;;;;;;5.10;3.00;;;;;;;-0.14;89.22;100855.54;110495;1275;22216;-82
2024/01/11 19:50:39;;;;;;;8.90;3.70;;;;;;;-0.19;88.90;100857.05;110462;1274;22199;-84
2024/01/11 19:53:08;;;;;;;5.30;2.90;;;;;;;-0.21;89.08;100860.96;110507;1275;22120;-83
2024/01/11 19:55:36;;;;;;;5.00;3.10;;;;;;;-0.22;88.63;100863.86;110356;1275;22132;-86
2024/01/11 19:58:03;;;;;;;10.30;3.40;;;;;;;-0.26;88.48;100860.08;110004;1281;22172;-86
2024/01/11 20:00:33;;;;;;;6.50;3.20;;;;;;;-0.25;88.56;100864.24;110031;1281;22134;-86
2024/01/11 20:03:07;;;;;;;5.50;3.70;;;;;;;-0.24;88.53;100865.32;109997;1281;22212;-86
2024/01/11 20:05:34;;;;;;;6.30;3.20;;;;;;;-0.23;88.24;100862.23;110151;1281;22466;-86
2024/01/11 20:08:07;;;;;;;5.40;3.40;;;;;;;-0.21;88.10;100870.13;109969;1281;22156;-85
2024/01/11 20:10:34;;;;;;;5.80;3.40;;;;;;;-0.24;87.48;100873.98;110005;1281;22319;-86
2024/01/11 20:13:05;;;;;;;6.20;3.90;;;;;;;-0.24;87.86;100884.03;110042;1281;22180;-86
2024/01/11 20:15:58;;;;;;;6.40;4.10;;;;;;;-0.22;87.65;100889.28;110128;1275;22143;-85
2024/01/11 20:18:28;;;;;;;7.20;3.70;;;;;;;-0.25;87.35;100895.91;110643;1272;22151;-87
2024/01/11 20:21:03;;;;;;;6.10;4.00;;;;;;;-0.30;86.91;100901.11;110598;1275;22310;-90
2024/01/11 20:23:42;;;;;;;7.60;4.00;;;;;;;-0.33;86.85;100904.10;110356;1276;22269;-88
2024/01/11 20:26:14;;;;;;;10.00;4.40;;;;;;;-0.34;86.81;100915.63;110502;1275;22313;-86
2024/01/11 20:28:45;;;;;;;6.20;4.00;;;;;;;-0.37;86.57;100914.13;110351;1276;22378;-86
2024/01/11 20:31:16;;;;;;;7.60;3.60;;;;;;;-0.40;86.63;100910.34;110311;1274;22420;-85
2024/01/11 20:33:45;;;;;;;7.00;3.90;;;;;;;-0.42;86.50;100909.55;110124;1276;22071;-87
2024/01/11 20:36:13;;;;;;;6.90;3.90;;;;;;;-0.44;86.37;100907.20;110331;1276;22155;-87
2024/01/11 20:38:43;;;;;;;5.40;3.40;;;;;;;-0.43;86.39;100910.70;110282;1276;22492;-88
2024/01/11 20:41:13;;;;;;;6.60;3.80;;;;;;;-0.43;85.98;100914.33;110277;1276;22211;-87
2024/01/11 20:43:44;;;;;;;6.30;3.30;;;;;;;-0.46;85.84;100913.02;110029;1280;22934;-86
2024/01/11 20:46:22;;;;;;;5.90;3.60;;;;;;;-0.51;85.61;100916.63;109613;1288;23257;-85
2024/01/11 20:49:00;;;;;;;5.60;3.20;;;;;;;-0.54;85.69;100922.05;109715;1286;22199;-86
2024/01/11 20:51:34;;;;;;;7.20;3.80;;;;;;;-0.57;85.48;100924.85;109659;1279;22170;-85
2024/01/11 20:54:03;;;;;;;5.50;3.40;;;;;;;-0.57;85.55;100926.23;109780;1288;22171;-86
2024/01/11 20:57:08;;;;;;;9.10;3.80;;;;;;;-0.57;85.46;100925.89;109310;1293;22936;-86
2024/01/11 20:59:47;;;;;;;9.10;4.00;;;;;;;-0.58;85.29;100932.04;109144;1295;22173;-85
2024/01/11 21:03:03;;;;;;;5.00;3.40;;;;;;;-0.60;85.57;100932.29;109074;1295;22205;-88
2024/01/11 21:05:55;;;;;;;4.90;3.10;;;;;;;-0.66;85.11;100937.91;109136;1293;22433;-88
2024/01/11 21:09:48;;;;;;;6.00;3.40;;;;;;;-0.72;84.80;100941.63;109501;1291;22225;-87
2024/01/11 21:13:47;;;;;;;7.50;3.60;;;;;;;-0.76;84.96;100948.55;109906;1283;22178;-89
2024/01/11 21:17:45;;;;;;;7.20;3.50;;;;;;;-0.82;84.76;100953.80;110310;1263;22158;-86
2024/01/11 21:20:21;;;;;;;9.00;4.90;;;;;;;-0.86;84.72;100959.35;110226;1279;22218;-87
2024/01/11 21:23:09;;;;;;;6.70;3.80;;;;;;;-0.85;84.75;100970.77;109769;1284;22346;-87
2024/01/11 21:26:02;;;;;;;7.60;3.80;;;;;;;-0.84;84.59;100980.49;109506;1286;22411;-87
2024/01/11 21:28:50;;;;;;;6.30;3.70;;;;;;;-0.86;84.30;100990.45;109603;1283;22183;-88
2024/01/11 21:31:38;;;;;;;8.70;4.40;;;;;;;-0.90;84.29;100996.67;108996;1290;22248;-86
2024/01/11 21:34:33;;;;;;;8.60;4.10;;;;;;;-0.92;84.36;101004.69;109049;1287;22386;-86
2024/01/11 21:37:05;;;;;;;7.80;3.70;;;;;;;-0.92;84.55;101011.64;108304;1300;22967;-85
2024/01/11 21:40:39;;;;;;;5.30;3.10;;;;;;;-0.94;84.25;101014.14;108251;1298;22365;-85
2024/01/11 21:44:03;;;;;;;9.80;5.00;;;;;;;-0.98;84.09;101015.12;108775;1297;22252;-86
2024/01/11 21:47:16;;;;;;;6.90;4.20;;;;;;;-0.94;84.47;101021.20;109004;1289;22153;-87
2024/01/11 21:50:08;;;;;;;6.80;4.10;;;;;;;-0.95;84.22;101020.63;109523;1292;22479;-86
2024/01/11 21:53:29;;;;;;;7.10;3.80;;;;;;;-0.96;84.23;101016.80;108872;1296;22239;-85
2024/01/11 21:56:24;;;;;;;10.10;3.80;;;;;;;-0.98;84.06;101019.98;109316;1292;23140;-88
2024/01/11 21:59:58;;;;;;;5.50;3.40;;;;;;;-1.00;83.80;101021.28;109491;1292;22263;-85
2024/01/11 22:03:10;;;;;;;6.60;3.40;;;;;;;-1.05;83.68;101026.41;109630;1284;22181;-86
2024/01/11 22:06:44;;;;;;;7.10;4.00;;;;;;;-1.13;83.37;101026.85;109877;1287;22189;-86
2024/01/11 22:10:15;;;;;;;9.40;4.20;;;;;;;-1.23;83.47;101027.26;109925;1287;22388;-86
2024/01/11 22:13:16;;;;;;;8.40;3.90;;;;;;;-1.26;83.63;101029.73;109873;1287;22194;-86
2024/01/11 22:15:54;;;;;;;6.90;3.60;;;;;;;-1.27;83.59;101038.65;109771;1287;22312;-87
2024/01/11 22:19:24;;;;;;;6.20;3.90;;;;;;;-1.29;83.53;101039.94;109194;1292;22163;-86
2024/01/11 22:23:25;;;;;;;;;;;;;;;;;;;;;
2024/01/11 22:26:56;;;;;;;12.20;4.70;;;;;;;-1.35;83.62;101055.17;109623;1285;22221;-87
2024/01/11 22:30:36;;;;;;;7.40;4.10;;;;;;;-1.40;83.33;101055.65;109810;1279;22372;-87
2024/01/11 22:37:43;;;;;;;5.30;3.40;;;;;;;-1.45;83.12;101068.02;109429;1289;23265;-86
2024/01/11 22:40:14;;;;;;;8.70;4.10;;;;;;;-1.47;83.04;101072.92;109130;1295;22240;-84
2024/01/11 22:43:04;;;;;;;9.20;4.70;;;;;;;-1.51;83.07;101076.00;109063;1290;23032;-84
2024/01/11 22:46:30;;;;;;;10.00;4.30;;;;;;;-1.57;82.95;101074.65;109368;1294;22146;-87
2024/01/11 22:49:43;;;;;;;8.80;3.60;;;;;;;-1.66;82.85;101076.95;108594;1300;22896;-86
2024/01/11 22:53:05;;;;;;;5.60;3.80;;;;;;;-1.70;82.99;101084.02;108821;1296;22444;-86
2024/01/11 22:55:45;;;;;;;6.10;3.80;;;;;;;-1.73;82.89;101091.47;108970;1296;22219;-85
2024/01/11 22:59:04;;;;;;;8.80;3.80;;;;;;;-1.78;83.00;101090.68;109074;1292;22170;-85
2024/01/11 23:02:21;;;;;;;9.20;4.00;;;;;;;-1.80;83.29;101090.90;109341;1289;22184;-86
2024/01/11 23:05:56;;;;;;;6.00;3.40;;;;;;;-1.77;83.41;101096.61;109872;1284;22298;-85
2024/01/11 23:08:26;;;;;;;8.20;3.70;;;;;;;-1.71;83.22;101103.13;110246;1275;22848;-86
2024/01/11 23:11:25;;;;;;;9.30;4.00;;;;;;;-1.70;82.95;101106.43;110576;1275;23035;-86
2024/01/11 23:14:21;;;;;;;8.20;4.40;;;;;;;-1.74;82.68;101101.39;110033;1279;22318;-85
2024/01/11 23:16:50;;;;;;;8.40;3.70;;;;;;;-1.79;82.54;101103.76;110086;1279;22235;-84
2024/01/11 23:19:20;;;;;;;7.00;4.00;;;;;;;-1.84;82.63;101114.21;110027;1279;22149;-87
2024/01/11 23:21:56;;;;;;;9.30;4.40;;;;;;;-1.81;82.91;101115.38;109862;1284;22169;-86
2024/01/11 23:25:05;;;;;;;6.50;3.90;;;;;;;-1.82;82.49;101116.70;109460;1290;22281;-86
2024/01/11 23:28:16;;;;;;;7.40;6.10;;;;;;;-1.87;82.46;101112.98;109578;1290;22198;-84
2024/01/11 23:31:26;;;;;;;10.50;4.60;;;;;;;-1.90;82.47;101112.17;109516;1290;22188;-86
2024/01/11 23:34:37;;;;;;;6.80;4.30;;;;;;;-1.92;82.53;101114.98;109164;1294;22226;-86
2024/01/11 23:37:37;;;;;;;6.60;3.10;;;;;;;-1.93;82.23;101120.45;109167;1289;22437;-87
2024/01/11 23:41:15;;;;;;;9.10;3.80;;;;;;;-1.92;82.34;101132.59;109147;1295;22190;-86
2024/01/11 23:44:28;;;;;;;10.00;4.00;;;;;;;-1.95;81.90;101136.41;109049;1295;22438;-87
2024/01/11 23:47:37;;;;;;;6.30;3.80;;;;;;;-1.98;82.01;101140.71;109337;1291;22282;-86
2024/01/11 23:50:47;;;;;;;7.40;3.70;;;;;;;-2.03;82.05;101134.63;109754;1286;22236;-88
2024/01/11 23:53:22;;;;;;;6.90;3.70;;;;;;;-2.04;82.00;101136.63;109766;1286;22168;-85
2024/01/11 23:56:41;;;;;;;5.70;3.60;;;;;;;-2.06;81.95;101138.93;109220;1293;22149;-88
